Time;durP1;ratioP1;P1;durP2;ratioP2;P2;SDS_P1;SDS_P2;PMS_P1;PMS_P2;Temp;Humidity;BMP_temperature;BMP_pressure;BME280_temperature;BME280_humidity;BME280_pressure;Samples;Min_cycle;Max_cycle;Signal;HPM_P1;HPM_P2
2024/02/13 00:03:19;;;;;;;19.80;9.70;;;;;;;5.11;93.99;97825.93;435238;1256;107476;-40
2024/02/13 00:13:26;;;;;;;20.20;11.30;;;;;;;4.97;94.10;97831.15;435624;1256;99246;-40
2024/02/13 00:23:36;;;;;;;21.40;11.70;;;;;;;4.77;94.31;97845.53;435522;1250;110732;-39
2024/02/13 00:33:43;;;;;;;13.50;9.50;;;;;;;4.64;93.95;97853.52;435329;1256;107711;-39
2024/02/13 00:43:51;;;;;;;13.20;8.40;;;;;;;4.57;94.08;97869.73;435401;1255;98824;-40
2024/02/13 00:53:58;;;;;;;13.30;8.70;;;;;;;4.69;94.54;97881.98;435325;1250;108551;-40
2024/02/13 01:04:06;;;;;;;14.00;9.30;;;;;;;4.86;94.77;97893.77;435548;1250;99317;-40
2024/02/13 01:14:14;;;;;;;17.20;10.30;;;;;;;4.82;94.62;97907.79;435461;1251;110279;-40
2024/02/13 01:24:24;;;;;;;19.20;11.60;;;;;;;4.74;94.81;97906.79;435525;1256;106862;-40
2024/02/13 01:34:31;;;;;;;14.60;9.60;;;;;;;4.69;94.73;97905.27;435240;1256;98563;-39
2024/02/13 01:44:38;;;;;;;16.70;8.90;;;;;;;4.60;94.46;97912.93;435231;1256;108516;-40
2024/02/13 01:54:47;;;;;;;14.90;9.70;;;;;;;4.48;94.46;97925.35;435321;1257;99239;-40
2024/02/13 02:04:56;;;;;;;20.20;11.40;;;;;;;4.39;94.75;97936.94;435418;1257;110811;-40
2024/02/13 02:15:04;;;;;;;19.60;11.00;;;;;;;4.16;94.63;97944.83;436207;1256;107897;-40
2024/02/13 02:25:13;;;;;;;22.90;12.10;;;;;;;3.86;94.45;97952.08;435433;1255;97990;-39
2024/02/13 02:55:34;;;;;;;19.20;10.70;;;;;;;3.72;94.55;97974.01;435216;1256;97969;-39
2024/02/13 03:15:48;;;;;;;24.50;13.20;;;;;;;3.56;94.91;97999.27;435360;1256;99247;-39
2024/02/13 03:25:55;;;;;;;21.90;12.10;;;;;;;3.47;95.02;98012.36;435460;1251;111367;-40
2024/02/13 03:36:02;;;;;;;22.00;12.70;;;;;;;3.42;94.97;98028.61;435299;1256;107695;-39
2024/02/13 03:46:09;;;;;;;16.10;10.50;;;;;;;3.44;94.93;98036.56;435391;1256;99207;-40
2024/02/13 03:56:17;;;;;;;16.40;11.60;;;;;;;3.44;94.89;98048.11;435185;1250;112248;-40
2024/02/13 04:06:24;;;;;;;23.40;13.60;;;;;;;3.41;95.01;98060.94;435341;1250;108360;-40
2024/02/13 04:16:31;;;;;;;25.20;14.60;;;;;;;3.29;95.11;98069.13;435003;1256;562580;-40
2024/02/13 04:26:39;;;;;;;26.00;14.60;;;;;;;3.29;95.64;98087.23;435283;1254;108459;-40
2024/02/13 04:36:47;;;;;;;21.10;13.80;;;;;;;3.37;95.60;98093.13;435458;1251;99212;-39
2024/02/13 04:46:55;;;;;;;24.70;13.00;;;;;;;3.57;95.79;98101.26;435335;1254;111768;-40
2024/02/13 04:57:03;;;;;;;20.20;13.50;;;;;;;3.76;96.04;98112.00;435231;1254;107597;-40
2024/02/13 05:07:29;;;;;;;24.20;12.90;;;;;;;3.89;96.08;98114.84;435299;1251;98116;-39
2024/02/13 05:17:36;;;;;;;21.50;13.20;;;;;;;4.00;96.23;98136.05;435195;1251;107710;-42
2024/02/13 05:37:51;;;;;;;30.50;17.00;;;;;;;4.13;96.80;98169.52;435172;1255;112988;-40
2024/02/13 05:47:58;;;;;;;37.00;20.60;;;;;;;4.09;97.20;98185.30;435441;1256;108417;-39
2024/02/13 05:58:06;;;;;;;24.50;15.30;;;;;;;4.13;97.17;98209.26;435356;1256;99236;-39
2024/02/13 06:18:19;;;;;;;21.60;12.40;;;;;;;4.35;97.49;98251.49;435325;1251;99218;-39
2024/02/13 06:28:26;;;;;;;17.20;12.10;;;;;;;4.48;97.56;98274.61;435145;1251;111726;-39
2024/02/13 06:38:34;;;;;;;25.90;15.00;;;;;;;4.51;97.47;98283.34;435362;1257;108296;-40
2024/02/13 06:48:42;;;;;;;27.50;15.10;;;;;;;4.48;97.65;98291.73;435367;1251;99250;-39
2024/02/13 06:58:50;;;;;;;19.50;13.40;;;;;;;4.53;97.60;98309.29;435405;1256;106380;-39
2024/02/13 07:08:57;;;;;;;24.90;13.80;;;;;;;4.57;97.71;98320.16;435263;1258;99333;-39
2024/02/13 07:19:04;;;;;;;24.00;13.70;;;;;;;4.65;97.79;98331.09;435332;1256;113043;-38
2024/02/13 07:29:11;;;;;;;22.80;13.90;;;;;;;4.77;97.85;98340.87;435269;1254;108693;-39
2024/02/13 07:39:19;;;;;;;28.40;15.20;;;;;;;4.77;98.10;98356.95;435312;1251;99318;-39
2024/02/13 07:49:26;;;;;;;26.60;15.00;;;;;;;4.81;98.29;98370.30;435350;1264;107178;-40
2024/02/13 07:59:33;;;;;;;23.40;13.60;;;;;;;4.99;98.12;98375.05;435279;1264;99204;-39
2024/02/13 08:09:41;;;;;;;25.20;12.90;;;;;;;5.16;98.27;98376.49;435352;1257;112123;-39
2024/02/13 08:19:48;;;;;;;21.80;13.20;;;;;;;5.46;98.48;98382.02;435391;1257;108427;-39
2024/02/13 08:29:54;;;;;;;20.70;11.60;;;;;;;5.72;98.35;98386.69;435339;1251;99221;-39
2024/02/13 08:40:03;;;;;;;16.60;11.50;;;;;;;6.21;98.39;98393.25;435353;1254;107249;-38
2024/02/13 08:50:12;;;;;;;23.80;12.10;;;;;;;7.14;98.49;98394.59;435317;1264;99221;-40
2024/02/13 09:00:22;;;;;;;24.70;11.90;;;;;;;7.62;96.40;98397.77;435448;1251;110203;-40
2024/02/13 09:10:29;;;;;;;15.00;7.60;;;;;;;7.77;93.81;98402.58;435388;1251;107703;-39
2024/02/13 09:20:36;;;;;;;14.80;7.50;;;;;;;8.08;91.37;98409.90;435269;1257;98833;-39
2024/02/13 09:40:50;;;;;;;11.90;5.90;;;;;;;8.17;86.64;98433.83;435477;1254;99243;-38
2024/02/13 09:51:02;;;;;;;12.20;6.60;;;;;;;8.16;84.36;98445.62;435396;1251;112161;-39
2024/02/13 10:01:10;;;;;;;8.90;7.00;;;;;;;8.05;82.77;98462.52;435359;1254;107533;-38
2024/02/13 10:11:18;;;;;;;9.50;6.50;;;;;;;8.14;81.42;98473.23;435312;1254;98024;-40
2024/02/13 10:41:38;;;;;;;16.30;9.00;;;;;;;7.61;79.62;98516.36;435419;1256;111744;-38
2024/02/13 10:51:46;;;;;;;17.10;10.50;;;;;;;7.36;80.71;98528.11;435299;1254;107053;-38
2024/02/13 11:01:58;;;;;;;14.40;7.70;;;;;;;7.32;81.20;98532.27;435391;1254;99858;-39
2024/02/13 11:12:08;;;;;;;25.10;10.50;;;;;;;7.20;81.61;98547.44;435301;1254;107537;-40
2024/02/13 11:22:18;;;;;;;18.60;10.20;;;;;;;7.08;81.94;98560.92;435460;1254;99190;-42
2024/02/13 12:02:47;;;;;;;21.50;11.80;;;;;;;6.60;81.74;98574.00;435145;1251;107789;-39
2024/02/13 12:12:56;;;;;;;12.70;10.60;;;;;;;6.58;82.17;98580.11;435385;1257;99218;-39
2024/02/13 12:23:05;;;;;;;19.00;12.10;;;;;;;6.54;82.24;98585.86;435493;1251;111628;-39
2024/02/13 12:33:20;;;;;;;19.00;10.40;;;;;;;6.17;82.19;98597.75;435317;1254;107648;-38
2024/02/13 12:43:28;;;;;;;17.30;9.50;;;;;;;6.24;82.68;98610.37;435276;1254;98506;-40
2024/02/13 12:53:36;;;;;;;24.00;14.00;;;;;;;6.44;82.24;98614.73;435472;1255;107156;-40
2024/02/13 13:13:50;;;;;;;13.20;9.50;;;;;;;6.44;81.61;98630.28;435544;1257;111469;-39
2024/02/13 13:54:19;;;;;;;12.00;6.80;;;;;;;5.74;80.74;98683.67;435305;1252;99249;-40
2024/02/13 14:04:26;;;;;;;16.00;9.50;;;;;;;5.82;78.36;98691.20;435265;1253;110927;-40
2024/02/13 14:14:33;;;;;;;9.90;4.20;;;;;;;5.72;77.18;98708.13;435225;1256;109452;-39
2024/02/13 14:24:41;;;;;;;9.70;4.90;;;;;;;5.59;75.95;98717.79;435287;1258;99240;-40
2024/02/13 14:34:48;;;;;;;7.00;4.90;;;;;;;5.40;75.99;98731.29;435218;1256;111933;-40
2024/02/13 14:44:55;;;;;;;9.90;5.20;;;;;;;5.26;76.48;98739.46;435239;1256;108318;-41
2024/02/13 15:05:10;;;;;;;16.80;8.90;;;;;;;5.20;77.38;98762.11;435309;1253;111278;-42
2024/02/13 15:15:17;;;;;;;30.90;17.30;;;;;;;5.16;78.04;98772.89;435212;1256;106934;-40
2024/02/13 15:25:23;;;;;;;12.30;7.10;;;;;;;5.02;77.97;98784.97;435291;1256;98574;-40
2024/02/13 15:56:04;;;;;;;13.80;7.90;;;;;;;4.89;78.74;98810.02;435163;1251;99330;-39
2024/02/13 16:06:11;;;;;;;17.60;8.80;;;;;;;4.78;78.80;98821.17;435251;1256;107102;-41
2024/02/13 16:16:19;;;;;;;43.80;19.50;;;;;;;4.71;79.12;98834.73;434786;1251;533444;-40
2024/02/13 16:26:26;;;;;;;12.00;4.70;;;;;;;4.72;79.23;98850.17;435232;1255;112683;-41
2024/02/13 16:36:34;;;;;;;11.90;6.40;;;;;;;4.76;79.39;98862.55;435286;1256;107444;-41
2024/02/13 16:46:45;;;;;;;19.30;11.90;;;;;;;4.74;79.72;98865.79;435202;1256;98813;-40
2024/02/13 16:56:53;;;;;;;26.00;11.40;;;;;;;4.68;80.05;98873.38;435202;1254;107554;-40
2024/02/13 17:07:00;;;;;;;15.60;9.50;;;;;;;4.61;80.17;98882.73;435286;1253;98028;-40
2024/02/13 17:17:08;;;;;;;16.60;8.90;;;;;;;4.59;80.31;98889.96;435164;1253;111820;-40
2024/02/13 17:27:16;;;;;;;18.80;9.30;;;;;;;4.55;80.54;98895.89;435255;1253;107584;-40
2024/02/13 17:47:29;;;;;;;37.10;21.70;;;;;;;4.53;81.02;98909.57;435152;1253;111192;-40
2024/02/13 18:17:52;;;;;;;20.80;8.80;;;;;;;4.47;81.98;98915.68;435229;1256;108325;-42
2024/02/13 18:27:59;;;;;;;46.40;19.40;;;;;;;4.37;81.99;98926.68;435380;1252;98271;-40
2024/02/13 18:38:07;;;;;;;25.20;11.40;;;;;;;4.32;82.38;98931.27;435323;1251;111954;-39
2024/02/13 18:48:15;;;;;;;23.00;11.80;;;;;;;4.33;82.31;98936.75;435256;1256;107764;-40
2024/02/13 18:58:22;;;;;;;11.80;6.40;;;;;;;4.39;82.28;98944.46;435216;1253;99855;-40
2024/02/13 19:08:29;;;;;;;15.90;7.00;;;;;;;4.39;82.20;98955.07;435468;1252;112265;-40
2024/02/13 19:28:46;;;;;;;16.50;7.60;;;;;;;4.32;82.08;98964.81;435296;1256;98059;-39
2024/02/13 19:38:54;;;;;;;8.90;4.80;;;;;;;4.28;81.96;98977.09;435348;1256;110688;-40
2024/02/13 19:59:08;;;;;;;13.90;7.60;;;;;;;4.19;81.84;98988.83;435302;1256;99260;-39
2024/02/13 20:09:14;;;;;;;9.70;4.80;;;;;;;4.23;81.86;98991.42;435349;1256;110808;-40
2024/02/13 20:19:21;;;;;;;14.20;6.10;;;;;;;4.29;81.65;99000.70;435079;1256;108707;-39
2024/02/13 20:39:34;;;;;;;115.40;44.40;;;;;;;4.23;81.97;98999.55;435252;1256;106643;-40
2024/02/13 20:49:42;;;;;;;37.30;15.40;;;;;;;4.10;81.87;99000.05;435051;1253;98011;-39
2024/02/13 20:59:50;;;;;;;117.70;39.70;;;;;;;3.85;81.56;99004.17;435300;1256;111395;-40
2024/02/13 21:09:56;;;;;;;66.50;26.70;;;;;;;3.53;81.52;99009.20;435274;1256;107847;-39
2024/02/13 21:20:04;;;;;;;55.50;28.00;;;;;;;3.19;81.56;99016.10;435081;1256;99223;-39
2024/02/13 21:30:11;;;;;;;34.40;18.00;;;;;;;2.92;81.61;99022.08;435161;1256;111248;-38
2024/02/13 21:40:18;;;;;;;14.10;8.80;;;;;;;2.79;81.80;99025.73;435198;1253;106676;-40
2024/02/13 21:50:26;;;;;;;23.70;10.40;;;;;;;2.66;82.02;99029.98;435231;1253;99249;-40
2024/02/13 22:00:33;;;;;;;22.30;10.70;;;;;;;2.44;82.27;99032.96;435193;1256;107661;-39
2024/02/13 22:20:47;;;;;;;21.90;11.70;;;;;;;2.00;82.46;99052.94;435283;1256;98001;-39
2024/02/13 22:30:54;;;;;;;14.80;8.00;;;;;;;1.78;82.41;99059.04;435257;1253;111492;-40
2024/02/13 22:41:01;;;;;;;13.40;7.50;;;;;;;1.75;82.58;99066.05;434994;1253;108118;-39
2024/02/13 22:51:08;;;;;;;26.20;12.50;;;;;;;1.74;82.82;99074.08;435086;1256;98262;-39
2024/02/13 23:01:16;;;;;;;44.10;20.60;;;;;;;1.68;83.30;99075.23;435234;1256;110082;-40
2024/02/13 23:11:23;;;;;;;44.90;21.10;;;;;;;1.72;83.71;99078.56;435168;1256;107246;-39
2024/02/13 23:31:38;;;;;;;25.60;16.10;;;;;;;1.86;83.82;99077.88;435026;1256;111799;-40
2024/02/13 23:51:51;;;;;;;26.60;15.70;;;;;;;2.19;84.62;99095.02;435117;1264;99247;-40
